createdAt,value
2018-08-17T00:01:55.234Z,17.43
2018-08-17T00:04:22.949Z,17.45
2018-08-17T00:06:50.654Z,17.56
2018-08-17T00:09:18.498Z,17.81
2018-08-17T00:11:46.157Z,17.85
2018-08-17T00:14:13.807Z,17.67
2018-08-17T00:16:41.652Z,17.91
2018-08-17T00:19:09.315Z,17.99
2018-08-17T00:21:37.013Z,17.92
2018-08-17T00:24:04.755Z,17.90
2018-08-17T00:26:32.438Z,17.73
2018-08-17T00:29:00.118Z,18.04
2018-08-17T00:31:27.788Z,18.03
2018-08-17T00:33:55.455Z,18.06
2018-08-17T00:36:23.196Z,17.98
2018-08-17T00:38:50.842Z,17.95
2018-08-17T00:41:18.542Z,18.04
2018-08-17T00:43:46.302Z,17.78
2018-08-17T00:46:13.986Z,17.75
2018-08-17T00:48:41.674Z,17.79
2018-08-17T00:51:09.329Z,17.91
2018-08-17T00:53:37.281Z,17.74
2018-08-17T00:56:05.011Z,17.58
2018-08-17T00:58:32.729Z,17.69
2018-08-17T01:01:00.459Z,17.63
2018-08-17T01:03:28.221Z,17.59
2018-08-17T01:05:55.887Z,17.68
2018-08-17T01:08:23.594Z,17.56
2018-08-17T01:10:51.322Z,17.51
2018-08-17T01:13:18.983Z,17.39
2018-08-17T01:15:46.679Z,17.33
2018-08-17T01:18:14.368Z,17.54
2018-08-17T01:20:42.034Z,17.51
2018-08-17T01:23:09.678Z,17.46
2018-08-17T01:25:37.767Z,17.40
2018-08-17T01:28:06.523Z,17.41
2018-08-17T01:30:34.272Z,17.26
2018-08-17T01:33:01.943Z,17.49
2018-08-17T01:35:29.587Z,17.60
2018-08-17T01:37:57.244Z,17.57
2018-08-17T01:40:24.893Z,17.52
2018-08-17T01:42:52.578Z,17.44
2018-08-17T01:45:20.243Z,17.50
2018-08-17T01:47:47.919Z,17.38
2018-08-17T01:50:15.578Z,17.22
2018-08-17T01:52:43.368Z,17.30
2018-08-17T01:55:11.816Z,17.34
2018-08-17T01:57:39.480Z,17.57
2018-08-17T02:00:11.265Z,17.68
2018-08-17T02:02:40.693Z,17.55
2018-08-17T02:05:08.966Z,17.62
2018-08-17T02:07:36.656Z,17.69
2018-08-17T02:10:05.760Z,17.57
2018-08-17T02:12:33.426Z,17.66
2018-08-17T02:15:01.096Z,17.52
2018-08-17T02:17:28.759Z,17.66
2018-08-17T02:19:56.428Z,17.68
2018-08-17T02:22:24.094Z,17.71
2018-08-17T02:24:51.781Z,17.70
2018-08-17T02:27:19.437Z,17.68
2018-08-17T02:29:47.092Z,17.74
2018-08-17T02:32:14.742Z,17.77
2018-08-17T02:34:42.417Z,17.72
2018-08-17T02:37:10.087Z,17.75
2018-08-17T02:39:37.774Z,17.78
2018-08-17T02:42:05.898Z,17.74
2018-08-17T02:44:33.547Z,17.77
2018-08-17T02:47:01.259Z,17.75
2018-08-17T02:49:28.932Z,17.74
2018-08-17T02:51:56.606Z,17.75
2018-08-17T02:54:24.292Z,17.71
2018-08-17T02:56:51.992Z,17.73
2018-08-17T02:59:19.655Z,17.63
2018-08-17T03:01:47.321Z,17.69
2018-08-17T03:04:15.082Z,17.63
2018-08-17T03:06:42.761Z,17.65
2018-08-17T03:09:11.339Z,17.56
2018-08-17T03:11:39.123Z,17.54
2018-08-17T03:14:07.222Z,17.49
2018-08-17T03:16:35.062Z,17.61
2018-08-17T03:19:02.717Z,17.63
2018-08-17T03:21:30.377Z,17.43
2018-08-17T03:23:58.052Z,17.40
2018-08-17T03:26:25.731Z,17.46
2018-08-17T03:28:53.394Z,17.57
2018-08-17T03:31:21.069Z,17.52
2018-08-17T03:33:48.716Z,17.55
2018-08-17T03:36:16.387Z,17.56
2018-08-17T03:38:44.061Z,17.50
2018-08-17T03:41:11.722Z,17.63
2018-08-17T03:43:39.393Z,17.65
2018-08-17T03:46:07.119Z,17.66
2018-08-17T03:48:34.778Z,17.73
2018-08-17T03:51:02.488Z,17.80
2018-08-17T03:53:30.256Z,17.88
2018-08-17T03:55:57.926Z,17.88
2018-08-17T03:58:25.903Z,17.93
2018-08-17T04:00:53.620Z,17.90
2018-08-17T04:03:21.286Z,17.92
2018-08-17T04:05:48.995Z,17.96
2018-08-17T04:08:16.654Z,17.95
2018-08-17T04:10:44.322Z,17.98
2018-08-17T04:13:12.040Z,18.02
2018-08-17T04:15:39.786Z,18.03
2018-08-17T04:18:08.062Z,18.11
2018-08-17T04:20:35.736Z,18.37
2018-08-17T04:23:03.489Z,18.55
2018-08-17T04:25:31.470Z,18.79
2018-08-17T04:27:59.211Z,18.96
2018-08-17T04:30:26.898Z,19.11
2018-08-17T04:32:54.558Z,19.17
2018-08-17T04:35:22.262Z,19.32
2018-08-17T04:37:49.915Z,19.32
2018-08-17T04:40:17.574Z,19.49
2018-08-17T04:42:45.224Z,19.56
2018-08-17T04:45:12.886Z,19.52
2018-08-17T04:47:40.556Z,19.72
2018-08-17T04:50:09.048Z,19.69
2018-08-17T04:52:37.117Z,19.60
2018-08-17T04:55:04.962Z,19.57
2018-08-17T04:57:32.833Z,19.54
2018-08-17T05:00:00.590Z,19.60
2018-08-17T05:02:28.292Z,19.62
2018-08-17T05:04:55.936Z,19.65
2018-08-17T05:07:23.765Z,19.72
2018-08-17T05:09:51.432Z,19.73
2018-08-17T05:12:19.085Z,19.85
2018-08-17T05:14:46.762Z,19.78
2018-08-17T05:17:14.463Z,19.89
2018-08-17T05:19:42.129Z,19.92
2018-08-17T05:22:09.811Z,19.89
2018-08-17T05:24:37.486Z,20.05
2018-08-17T05:27:05.323Z,20.07
2018-08-17T05:29:32.990Z,20.07
2018-08-17T05:32:00.668Z,20.13
2018-08-17T05:34:28.334Z,20.09
2018-08-17T05:36:56.127Z,20.09
2018-08-17T05:39:23.841Z,20.11
2018-08-17T05:41:51.590Z,20.10
2018-08-17T05:44:19.288Z,20.12
2018-08-17T05:46:47.014Z,20.10
2018-08-17T05:49:14.678Z,20.13
2018-08-17T05:51:42.337Z,20.15
2018-08-17T05:54:10.006Z,20.16
2018-08-17T05:56:37.726Z,20.18
2018-08-17T05:59:05.620Z,20.23
2018-08-17T06:01:33.292Z,20.20
2018-08-17T06:04:00.953Z,20.23
2018-08-17T06:06:28.619Z,20.27
2018-08-17T06:08:56.290Z,20.27
2018-08-17T06:11:24.149Z,20.35
2018-08-17T06:13:51.697Z,20.32
2018-08-17T06:16:19.367Z,20.35
2018-08-17T06:18:47.025Z,20.37
2018-08-17T06:21:14.723Z,20.42
2018-08-17T06:23:42.416Z,20.47
2018-08-17T06:26:10.096Z,20.47
2018-08-17T06:28:37.769Z,20.51
2018-08-17T06:31:05.748Z,20.61
2018-08-17T06:33:33.436Z,20.53
2018-08-17T06:36:01.341Z,20.61
2018-08-17T06:38:29.028Z,20.64
2018-08-17T06:40:56.740Z,20.70
2018-08-17T06:43:24.418Z,20.70
2018-08-17T06:45:52.172Z,20.71
2018-08-17T06:48:19.859Z,20.80
2018-08-17T06:50:47.625Z,20.88
2018-08-17T06:53:15.214Z,20.80
2018-08-17T06:55:42.921Z,20.78
2018-08-17T06:58:10.621Z,20.81
2018-08-17T07:00:38.285Z,20.80
2018-08-17T07:03:06.173Z,20.83
2018-08-17T07:05:33.861Z,20.91
2018-08-17T07:08:01.541Z,20.89
2018-08-17T07:10:29.311Z,20.91
2018-08-17T07:12:56.995Z,21.04
2018-08-17T07:15:24.664Z,21.05
2018-08-17T07:17:52.374Z,21.09
2018-08-17T07:20:20.074Z,21.11
2018-08-17T07:22:47.832Z,21.16
2018-08-17T07:25:15.530Z,21.14
2018-08-17T07:27:43.291Z,21.15
2018-08-17T07:30:11.038Z,21.10
2018-08-17T07:32:38.741Z,21.14
2018-08-17T07:35:07.864Z,21.12
2018-08-17T07:37:43.508Z,21.13
2018-08-17T07:40:11.216Z,21.15
2018-08-17T07:42:38.913Z,21.20
2018-08-17T07:45:06.706Z,21.16
2018-08-17T07:47:34.373Z,21.22
2018-08-17T07:50:02.076Z,21.21
2018-08-17T07:52:29.791Z,21.23
2018-08-17T07:54:57.448Z,21.26
2018-08-17T07:57:25.208Z,21.41
2018-08-17T07:59:52.898Z,21.41
2018-08-17T08:02:20.582Z,21.46
2018-08-17T08:04:48.238Z,21.56
2018-08-17T08:07:15.912Z,21.58
2018-08-17T08:09:43.564Z,21.58
2018-08-17T08:12:11.232Z,21.69
2018-08-17T08:14:38.913Z,21.67
2018-08-17T08:17:06.681Z,21.73
2018-08-17T08:19:34.372Z,21.81
2018-08-17T08:22:02.048Z,21.78
2018-08-17T08:24:31.873Z,21.79
2018-08-17T08:26:59.602Z,21.80
2018-08-17T08:29:27.302Z,21.83
2018-08-17T08:31:54.996Z,21.90
2018-08-17T08:34:22.665Z,21.92
2018-08-17T08:36:50.383Z,21.89
2018-08-17T08:39:18.082Z,21.94
2018-08-17T08:41:45.741Z,21.92
2018-08-17T08:44:13.437Z,21.88
2018-08-17T08:46:41.140Z,21.93
2018-08-17T08:49:08.845Z,21.97
2018-08-17T08:51:36.549Z,21.98
2018-08-17T08:54:04.377Z,22.00
2018-08-17T08:56:32.060Z,22.00
2018-08-17T08:58:59.759Z,22.00
2018-08-17T09:01:27.414Z,22.18
2018-08-17T09:03:55.194Z,22.20
2018-08-17T09:06:23.305Z,22.26
2018-08-17T09:08:50.969Z,22.38
2018-08-17T09:11:18.650Z,22.36
2018-08-17T09:13:46.367Z,22.34
2018-08-17T09:16:14.047Z,22.41
2018-08-17T09:18:41.759Z,22.37
2018-08-17T09:21:09.417Z,22.41
2018-08-17T09:23:37.273Z,22.41
2018-08-17T09:26:04.965Z,22.37
2018-08-17T09:28:32.719Z,22.33
2018-08-17T09:31:00.493Z,22.36
2018-08-17T09:33:28.226Z,22.36
2018-08-17T09:35:55.965Z,22.37
2018-08-17T09:38:23.674Z,22.42
2018-08-17T09:40:51.358Z,22.42
2018-08-17T09:43:19.117Z,22.40
2018-08-17T09:45:46.838Z,22.41
2018-08-17T09:48:14.534Z,22.38
2018-08-17T09:50:42.196Z,22.37
2018-08-17T09:53:09.881Z,22.41
2018-08-17T09:55:37.560Z,22.49
2018-08-17T09:58:05.282Z,22.48
2018-08-17T10:00:38.484Z,22.55
2018-08-17T10:03:12.487Z,22.58
2018-08-17T10:05:42.024Z,22.63
2018-08-17T10:08:15.178Z,22.62
2018-08-17T10:10:43.534Z,22.65
2018-08-17T10:13:11.238Z,22.68
2018-08-17T10:15:38.932Z,22.76
2018-08-17T10:18:06.636Z,22.75
2018-08-17T10:20:34.405Z,22.76
2018-08-17T10:23:10.637Z,22.79
2018-08-17T10:25:38.925Z,22.80
2018-08-17T10:28:06.654Z,22.89
2018-08-17T10:30:34.372Z,22.85
2018-08-17T10:33:02.077Z,22.78
2018-08-17T10:35:33.846Z,22.75
2018-08-17T10:38:02.856Z,22.76
2018-08-17T10:40:30.616Z,22.75
2018-08-17T10:43:00.113Z,22.75
2018-08-17T10:45:27.988Z,22.83
2018-08-17T10:47:56.129Z,22.86
2018-08-17T10:50:25.997Z,22.84
2018-08-17T10:52:55.915Z,22.82
2018-08-17T10:55:35.449Z,22.83
2018-08-17T10:58:03.627Z,22.85
2018-08-17T11:00:31.336Z,22.83
2018-08-17T11:02:59.000Z,22.84
2018-08-17T11:05:26.682Z,22.80
2018-08-17T11:07:54.359Z,22.81
2018-08-17T11:10:22.013Z,22.90
2018-08-17T11:12:49.684Z,22.99
2018-08-17T11:15:17.369Z,23.08
2018-08-17T11:17:45.665Z,23.14
2018-08-17T11:20:14.820Z,23.29
2018-08-17T11:22:42.515Z,23.24
2018-08-17T11:25:10.213Z,23.29
2018-08-17T11:27:38.079Z,23.26
2018-08-17T11:30:08.185Z,23.24
2018-08-17T11:32:35.860Z,23.26
2018-08-17T11:35:03.680Z,23.32
2018-08-17T11:37:31.379Z,23.31
2018-08-17T11:40:00.722Z,23.31
2018-08-17T11:42:41.375Z,23.34
2018-08-17T11:45:11.057Z,23.29
2018-08-17T11:47:39.768Z,23.29
2018-08-17T11:50:11.541Z,23.32
2018-08-17T11:52:55.174Z,23.35
2018-08-17T11:55:23.833Z,23.35
2018-08-17T11:57:51.832Z,23.31
2018-08-17T12:00:19.577Z,23.34
2018-08-17T12:02:48.024Z,23.35
2018-08-17T12:05:15.743Z,23.37
2018-08-17T12:07:44.335Z,23.34
2018-08-17T12:10:12.033Z,23.25
2018-08-17T12:12:40.761Z,23.24
2018-08-17T12:15:09.529Z,23.29
2018-08-17T12:17:37.388Z,23.31
2018-08-17T12:20:05.124Z,23.28
2018-08-17T12:22:32.841Z,23.34
2018-08-17T12:25:00.962Z,23.36
2018-08-17T12:27:28.672Z,23.36
2018-08-17T12:29:56.350Z,23.37
2018-08-17T12:32:24.487Z,23.37
2018-08-17T12:34:52.355Z,23.39
2018-08-17T12:37:20.181Z,23.34
2018-08-17T12:39:47.842Z,23.36
2018-08-17T12:42:15.652Z,23.41
2018-08-17T12:44:43.316Z,23.41
2018-08-17T12:47:10.981Z,23.41
2018-08-17T12:49:38.664Z,23.41
2018-08-17T12:52:06.406Z,23.40
2018-08-17T12:54:34.719Z,23.38
2018-08-17T12:57:03.429Z,23.42
2018-08-17T12:59:31.678Z,23.44
2018-08-17T13:01:59.361Z,23.39
2018-08-17T13:04:27.620Z,23.42
2018-08-17T13:06:55.693Z,23.42
2018-08-17T13:09:23.691Z,23.44
2018-08-17T13:11:55.413Z,23.49
2018-08-17T13:14:23.198Z,23.54
2018-08-17T13:16:51.417Z,23.57
2018-08-17T13:19:19.105Z,23.58
2018-08-17T13:21:46.781Z,23.53
2018-08-17T13:24:14.474Z,23.53
2018-08-17T13:26:42.246Z,23.58
2018-08-17T13:29:09.976Z,23.57
2018-08-17T13:31:37.760Z,23.49
2018-08-17T13:34:05.595Z,23.50
2018-08-17T13:36:33.317Z,23.44
2018-08-17T13:39:01.061Z,23.48
2018-08-17T13:41:28.790Z,23.54
2018-08-17T13:43:56.540Z,23.48
2018-08-17T13:46:24.505Z,23.47
2018-08-17T13:48:52.396Z,23.43
2018-08-17T13:51:20.150Z,23.48
2018-08-17T13:53:47.899Z,23.45
2018-08-17T13:56:15.593Z,23.39
2018-08-17T13:58:44.180Z,23.30
2018-08-17T14:01:11.925Z,23.39
2018-08-17T14:03:39.610Z,23.34
2018-08-17T14:06:07.309Z,23.37
2018-08-17T14:08:34.976Z,23.34
2018-08-17T14:11:02.682Z,23.31
2018-08-17T14:13:30.357Z,23.38
2018-08-17T14:15:58.029Z,23.35
2018-08-17T14:18:25.752Z,23.36
2018-08-17T14:20:53.414Z,23.38
2018-08-17T14:23:21.117Z,23.37
2018-08-17T14:25:48.825Z,23.39
2018-08-17T14:28:16.516Z,23.37
2018-08-17T14:30:44.185Z,23.28
2018-08-17T14:33:11.844Z,23.26
2018-08-17T14:35:39.613Z,23.28
2018-08-17T14:38:07.361Z,23.26
2018-08-17T14:40:35.064Z,23.20
2018-08-17T14:43:02.770Z,23.19
2018-08-17T14:45:30.437Z,23.15
2018-08-17T14:47:58.109Z,23.11
2018-08-17T14:50:25.825Z,23.14
2018-08-17T14:52:53.520Z,23.16
2018-08-17T14:55:21.307Z,23.16
2018-08-17T14:57:49.090Z,23.08
2018-08-17T15:00:16.788Z,23.18
2018-08-17T15:02:44.493Z,23.07
2018-08-17T15:05:14.231Z,23.03
2018-08-17T15:07:42.035Z,23.16
2018-08-17T15:10:11.788Z,23.01
2018-08-17T15:12:39.973Z,23.00
2018-08-17T15:15:08.732Z,22.94
2018-08-17T15:17:36.469Z,22.91
2018-08-17T15:20:04.398Z,22.95
2018-08-17T15:22:32.126Z,22.95
2018-08-17T15:24:59.991Z,23.13
2018-08-17T15:27:27.761Z,23.04
2018-08-17T15:29:55.440Z,22.96
2018-08-17T15:32:23.161Z,22.91
2018-08-17T15:34:50.865Z,22.80
2018-08-17T15:37:18.757Z,22.85
2018-08-17T15:39:46.433Z,22.85
2018-08-17T15:42:14.142Z,22.84
2018-08-17T15:44:41.860Z,22.79
2018-08-17T15:47:09.598Z,22.85
2018-08-17T15:49:37.337Z,22.93
2018-08-17T15:52:06.050Z,22.73
2018-08-17T15:54:33.747Z,22.76
2018-08-17T15:57:01.471Z,22.76
2018-08-17T15:59:29.230Z,22.65
2018-08-17T16:01:56.958Z,22.79
2018-08-17T16:04:24.813Z,22.81
2018-08-17T16:06:52.587Z,22.69
2018-08-17T16:09:20.257Z,22.51
2018-08-17T16:11:48.012Z,22.72
2018-08-17T16:14:15.785Z,22.69
2018-08-17T16:16:43.492Z,22.43
2018-08-17T16:19:11.278Z,22.55
2018-08-17T16:21:38.977Z,22.68
2018-08-17T16:24:06.969Z,22.55
2018-08-17T16:26:34.806Z,22.62
2018-08-17T16:29:02.975Z,22.52
2018-08-17T16:31:40.563Z,22.56
2018-08-17T16:34:08.976Z,22.43
2018-08-17T16:36:38.286Z,22.39
2018-08-17T16:39:12.569Z,22.48
2018-08-17T16:41:40.329Z,22.44
2018-08-17T16:44:08.106Z,22.42
2018-08-17T16:46:38.295Z,22.44
2018-08-17T16:49:06.321Z,22.41
2018-08-17T16:51:34.078Z,22.44
2018-08-17T16:54:01.744Z,22.42
2018-08-17T16:56:29.417Z,22.48
2018-08-17T16:58:57.100Z,22.15
2018-08-17T17:01:24.877Z,22.24
2018-08-17T17:03:52.607Z,22.35
2018-08-17T17:06:20.387Z,22.47
2018-08-17T17:08:48.242Z,22.24
2018-08-17T17:11:15.921Z,22.25
2018-08-17T17:13:43.584Z,22.15
2018-08-17T17:16:11.295Z,22.05
2018-08-17T17:18:38.956Z,21.95
2018-08-17T17:21:06.661Z,22.12
2018-08-17T17:23:43.088Z,22.14
2018-08-17T17:26:10.949Z,21.94
2018-08-17T17:28:38.625Z,22.09
2018-08-17T17:31:06.536Z,22.08
2018-08-17T17:33:34.208Z,22.11
2018-08-17T17:36:01.969Z,22.15
2018-08-17T17:38:29.644Z,22.00
2018-08-17T17:40:57.375Z,21.94
2018-08-17T17:43:25.053Z,21.80
2018-08-17T17:45:52.856Z,21.98
2018-08-17T17:48:20.525Z,21.97
2018-08-17T17:50:48.367Z,21.87
2018-08-17T17:53:16.074Z,22.00
2018-08-17T17:55:50.369Z,21.87
2018-08-17T17:58:18.876Z,21.98
2018-08-17T18:00:59.627Z,21.98
2018-08-17T18:03:29.404Z,21.86
2018-08-17T18:06:07.236Z,21.72
2018-08-17T18:08:34.958Z,21.67
2018-08-17T18:11:02.818Z,21.67
2018-08-17T18:13:30.651Z,21.77
2018-08-17T18:15:58.428Z,21.69
2018-08-17T18:18:26.109Z,21.50
2018-08-17T18:20:53.818Z,21.62
2018-08-17T18:23:21.585Z,21.61
2018-08-17T18:25:49.268Z,21.41
2018-08-17T18:28:16.966Z,21.41
2018-08-17T18:30:44.706Z,21.35
2018-08-17T18:33:12.401Z,21.56
2018-08-17T18:35:40.073Z,21.54
2018-08-17T18:38:07.985Z,21.56
2018-08-17T18:40:35.744Z,21.39
2018-08-17T18:43:03.616Z,21.21
2018-08-17T18:45:31.316Z,21.04
2018-08-17T18:47:58.974Z,21.25
2018-08-17T18:50:26.661Z,21.03
2018-08-17T18:52:54.478Z,21.19
2018-08-17T18:55:22.119Z,21.15
2018-08-17T18:57:49.899Z,21.09
2018-08-17T19:00:17.582Z,21.06
2018-08-17T19:02:45.323Z,20.96
2018-08-17T19:05:13.041Z,20.90
2018-08-17T19:07:40.864Z,20.84
2018-08-17T19:10:09.455Z,20.51
2018-08-17T19:12:37.295Z,20.83
2018-08-17T19:15:09.192Z,20.84
2018-08-17T19:17:37.045Z,20.60
2018-08-17T19:20:06.884Z,20.84
2018-08-17T19:22:37.060Z,20.82
2018-08-17T19:25:05.974Z,20.56
2018-08-17T19:27:33.690Z,20.37
2018-08-17T19:30:01.978Z,20.40
2018-08-17T19:32:29.644Z,20.32
2018-08-17T19:34:57.327Z,20.33
2018-08-17T19:37:25.045Z,20.50
2018-08-17T19:39:52.715Z,20.49
2018-08-17T19:42:20.374Z,20.19
2018-08-17T19:44:48.176Z,20.47
2018-08-17T19:47:15.849Z,20.38
2018-08-17T19:49:43.603Z,20.40
2018-08-17T19:52:11.302Z,20.26
2018-08-17T19:54:38.975Z,20.21
2018-08-17T19:57:06.685Z,20.21
2018-08-17T19:59:34.369Z,20.16
2018-08-17T20:02:02.081Z,19.81
2018-08-17T20:04:30.384Z,19.99
2018-08-17T20:06:58.378Z,20.06
2018-08-17T20:09:26.071Z,19.96
2018-08-17T20:11:53.761Z,19.81
2018-08-17T20:14:21.498Z,19.69
2018-08-17T20:16:49.235Z,19.67
2018-08-17T20:19:17.006Z,19.51
2018-08-17T20:21:44.641Z,19.78
2018-08-17T20:24:12.342Z,19.63
2018-08-17T20:26:40.393Z,19.32
2018-08-17T20:29:07.798Z,19.67
2018-08-17T20:31:40.030Z,19.63
2018-08-17T20:34:07.780Z,19.49
2018-08-17T20:36:35.479Z,19.51
2018-08-17T20:39:09.838Z,19.64
2018-08-17T20:41:37.639Z,19.46
2018-08-17T20:44:05.671Z,19.53
2018-08-17T20:46:33.405Z,19.22
2018-08-17T20:49:01.130Z,19.16
2018-08-17T20:51:28.822Z,19.33
2018-08-17T20:53:58.782Z,19.08
2018-08-17T20:56:27.134Z,19.14
2018-08-17T20:58:54.980Z,19.24
2018-08-17T21:01:22.901Z,19.02
2018-08-17T21:03:50.795Z,19.10
2018-08-17T21:08:48.792Z,19.14
2018-08-17T21:11:16.543Z,19.04
2018-08-17T21:13:44.244Z,18.83
2018-08-17T21:16:11.911Z,19.06
2018-08-17T21:18:39.590Z,18.97
2018-08-17T21:21:07.322Z,18.75
2018-08-17T21:23:34.980Z,18.89
2018-08-17T21:26:02.723Z,18.87
2018-08-17T21:28:30.912Z,18.99
2018-08-17T21:30:58.641Z,18.86
2018-08-17T21:33:26.346Z,18.85
2018-08-17T21:35:54.073Z,18.83
2018-08-17T21:38:21.755Z,18.98
2018-08-17T21:40:49.442Z,18.77
2018-08-17T21:43:17.263Z,18.84
2018-08-17T21:45:45.266Z,18.75
2018-08-17T21:48:20.233Z,18.63
2018-08-17T21:50:48.070Z,18.92
2018-08-17T21:53:15.737Z,18.90
2018-08-17T21:55:43.439Z,18.59
2018-08-17T21:58:11.097Z,18.39
2018-08-17T22:00:38.846Z,18.48
2018-08-17T22:03:29.505Z,18.40
2018-08-17T22:05:57.255Z,18.34
2018-08-17T22:08:24.914Z,18.16
2018-08-17T22:10:52.671Z,18.36
2018-08-17T22:13:28.948Z,18.27
2018-08-17T22:15:56.810Z,18.29
2018-08-17T22:18:24.577Z,18.28
2018-08-17T22:20:52.253Z,18.20
2018-08-17T22:23:19.934Z,18.23
2018-08-17T22:25:47.668Z,18.18
2018-08-17T22:28:15.788Z,18.10
2018-08-17T22:30:43.590Z,18.24
2018-08-17T22:33:12.537Z,17.97
2018-08-17T22:35:40.393Z,17.82
2018-08-17T22:38:08.078Z,18.04
2018-08-17T22:40:35.782Z,18.10
2018-08-17T22:43:03.513Z,18.17
2018-08-17T22:45:31.308Z,18.15
2018-08-17T22:47:58.981Z,18.18
2018-08-17T22:50:26.741Z,18.10
2018-08-17T22:52:54.504Z,18.05
2018-08-17T22:55:22.149Z,18.07
2018-08-17T22:57:49.817Z,17.86
2018-08-17T23:00:22.890Z,17.69
2018-08-17T23:02:52.768Z,17.84
2018-08-17T23:05:24.617Z,17.68
2018-08-17T23:07:52.313Z,17.55
2018-08-17T23:10:21.143Z,17.50
2018-08-17T23:12:49.935Z,17.61
2018-08-17T23:15:17.743Z,17.31
2018-08-17T23:17:51.691Z,17.58
2018-08-17T23:20:24.897Z,17.51
2018-08-17T23:22:54.720Z,17.39
2018-08-17T23:25:22.493Z,17.57
2018-08-17T23:27:50.576Z,17.30
2018-08-17T23:30:18.489Z,17.45
2018-08-17T23:32:46.551Z,17.18
2018-08-17T23:35:14.231Z,17.31
2018-08-17T23:37:41.974Z,17.58
2018-08-17T23:40:10.020Z,17.43
2018-08-17T23:42:37.724Z,17.15
2018-08-17T23:45:06.768Z,17.26
2018-08-17T23:47:34.772Z,17.13
2018-08-17T23:50:02.482Z,17.30
2018-08-17T23:52:30.180Z,17.33
2018-08-17T23:54:57.861Z,17.13
2018-08-17T23:57:25.589Z,16.99
2018-08-17T23:59:53.325Z,16.38
